sensor_id;sensor_type;location;lat;lon;timestamp;P1;P2;P0
68198;PMS7003;55021;51.554;17.044;2023-05-24T00:10:28;46.75;37.00;23.00
68198;PMS7003;55021;51.554;17.044;2023-05-24T00:25:31;48.00;37.75;23.25
68198;PMS7003;55021;51.554;17.044;2023-05-24T00:40:33;52.25;40.75;23.00
68198;PMS7003;55021;51.554;17.044;2023-05-24T00:55:36;41.00;33.50;20.00
68198;PMS7003;55021;51.554;17.044;2023-05-24T01:10:41;36.00;32.00;16.50
68198;PMS7003;55021;51.554;17.044;2023-05-24T01:26:04;29.75;23.25;10.00
68198;PMS7003;55021;51.554;17.044;2023-05-24T01:41:22;12.75;12.00;5.00
68198;PMS7003;55021;51.554;17.044;2023-05-24T01:56:39;12.75;11.25;4.00
68198;PMS7003;55021;51.554;17.044;2023-05-24T02:11:43;12.50;10.50;4.50
68198;PMS7003;55021;51.554;17.044;2023-05-24T02:26:46;16.00;15.00;5.50
68198;PMS7003;55021;51.554;17.044;2023-05-24T02:41:49;15.25;14.75;8.00
68198;PMS7003;55021;51.554;17.044;2023-05-24T02:56:51;12.50;9.50;4.50
68198;PMS7003;55021;51.554;17.044;2023-05-24T03:11:55;15.00;11.00;5.00
68198;PMS7003;55021;51.554;17.044;2023-05-24T03:26:58;12.25;10.75;4.75
68198;PMS7003;55021;51.554;17.044;2023-05-24T03:42:01;12.25;10.00;4.00
68198;PMS7003;55021;51.554;17.044;2023-05-24T03:57:03;10.00;8.50;3.00
68198;PMS7003;55021;51.554;17.044;2023-05-24T04:12:06;12.00;9.50;4.00
68198;PMS7003;55021;51.554;17.044;2023-05-24T04:27:09;14.50;13.50;7.00
68198;PMS7003;55021;51.554;17.044;2023-05-24T04:42:12;10.00;10.00;4.00
68198;PMS7003;55021;51.554;17.044;2023-05-24T04:57:15;12.00;11.00;4.00
68198;PMS7003;55021;51.554;17.044;2023-05-24T05:12:18;10.50;10.50;4.00
68198;PMS7003;55021;51.554;17.044;2023-05-24T05:27:22;14.00;12.25;5.00
68198;PMS7003;55021;51.554;17.044;2023-05-24T05:57:50;14.25;12.25;5.00
68198;PMS7003;55021;51.554;17.044;2023-05-24T06:12:55;14.25;12.25;6.75
68198;PMS7003;55021;51.554;17.044;2023-05-24T06:27:59;11.75;10.50;5.00
68198;PMS7003;55021;51.554;17.044;2023-05-24T06:43:08;12.75;12.00;5.00
68198;PMS7003;55021;51.554;17.044;2023-05-24T06:58:17;19.50;13.00;7.00
68198;PMS7003;55021;51.554;17.044;2023-05-24T07:28:57;16.75;15.00;9.25
68198;PMS7003;55021;51.554;17.044;2023-05-24T07:44:00;17.50;15.50;8.75
68198;PMS7003;55021;51.554;17.044;2023-05-24T07:59:19;18.00;15.25;9.00
68198;PMS7003;55021;51.554;17.044;2023-05-24T08:14:21;19.50;17.75;10.00
68198;PMS7003;55021;51.554;17.044;2023-05-24T08:29:26;21.75;19.25;10.50
68198;PMS7003;55021;51.554;17.044;2023-05-24T08:44:28;22.25;17.50;10.00
68198;PMS7003;55021;51.554;17.044;2023-05-24T08:59:31;22.75;21.25;9.75
68198;PMS7003;55021;51.554;17.044;2023-05-24T09:14:36;22.75;18.00;11.00
68198;PMS7003;55021;51.554;17.044;2023-05-24T09:29:40;30.00;23.75;15.00
68198;PMS7003;55021;51.554;17.044;2023-05-24T10:00:14;27.75;22.00;11.25
68198;PMS7003;55021;51.554;17.044;2023-05-24T10:15:24;21.25;16.75;9.00
68198;PMS7003;55021;51.554;17.044;2023-05-24T10:30:28;16.00;15.75;8.50
68198;PMS7003;55021;51.554;17.044;2023-05-24T10:45:37;18.75;15.75;8.75
68198;PMS7003;55021;51.554;17.044;2023-05-24T11:00:43;17.00;14.00;7.00
68198;PMS7003;55021;51.554;17.044;2023-05-24T11:15:49;15.25;14.00;7.25
68198;PMS7003;55021;51.554;17.044;2023-05-24T11:30:52;13.50;11.50;6.50
68198;PMS7003;55021;51.554;17.044;2023-05-24T11:45:54;16.00;14.50;7.50
68198;PMS7003;55021;51.554;17.044;2023-05-24T12:00:57;13.75;13.00;6.75
68198;PMS7003;55021;51.554;17.044;2023-05-24T12:16:01;13.50;11.50;5.50
68198;PMS7003;55021;51.554;17.044;2023-05-24T12:31:04;14.75;14.00;7.75
68198;PMS7003;55021;51.554;17.044;2023-05-24T12:46:07;13.25;13.25;8.00
68198;PMS7003;55021;51.554;17.044;2023-05-24T13:01:10;14.00;13.50;7.25
68198;PMS7003;55021;51.554;17.044;2023-05-24T13:16:12;15.50;12.75;7.00
68198;PMS7003;55021;51.554;17.044;2023-05-24T13:31:15;13.75;13.00;7.50
68198;PMS7003;55021;51.554;17.044;2023-05-24T13:46:17;15.75;14.00;8.25
68198;PMS7003;55021;51.554;17.044;2023-05-24T14:01:20;14.75;13.00;8.00
68198;PMS7003;55021;51.554;17.044;2023-05-24T14:16:23;17.25;15.50;8.00
68198;PMS7003;55021;51.554;17.044;2023-05-24T14:31:25;14.50;13.00;7.00
68198;PMS7003;55021;51.554;17.044;2023-05-24T14:46:28;52.75;40.25;23.75
68198;PMS7003;55021;51.554;17.044;2023-05-24T15:01:30;12.75;12.00;6.50
68198;PMS7003;55021;51.554;17.044;2023-05-24T15:16:33;15.50;13.75;7.75
68198;PMS7003;55021;51.554;17.044;2023-05-24T15:31:35;18.25;12.25;6.75
68198;PMS7003;55021;51.554;17.044;2023-05-24T15:46:38;16.00;12.00;6.00
68198;PMS7003;55021;51.554;17.044;2023-05-24T16:01:43;12.50;12.00;7.00
68198;PMS7003;55021;51.554;17.044;2023-05-24T16:16:46;15.50;13.00;7.75
68198;PMS7003;55021;51.554;17.044;2023-05-24T16:31:49;15.25;13.75;7.00
68198;PMS7003;55021;51.554;17.044;2023-05-24T16:46:53;19.50;14.75;8.50
68198;PMS7003;55021;51.554;17.044;2023-05-24T17:02:01;16.50;15.75;9.00
68198;PMS7003;55021;51.554;17.044;2023-05-24T17:32:41;43.75;31.75;18.50
68198;PMS7003;55021;51.554;17.044;2023-05-24T17:47:44;22.00;19.75;10.00
68198;PMS7003;55021;51.554;17.044;2023-05-24T18:02:48;21.75;19.50;10.00
68198;PMS7003;55021;51.554;17.044;2023-05-24T18:17:53;18.75;17.50;10.75
68198;PMS7003;55021;51.554;17.044;2023-05-24T18:32:56;18.00;18.00;9.50
68198;PMS7003;55021;51.554;17.044;2023-05-24T18:47:58;22.25;19.00;10.25
68198;PMS7003;55021;51.554;17.044;2023-05-24T19:03:01;25.25;20.50;12.75
68198;PMS7003;55021;51.554;17.044;2023-05-24T19:18:03;21.75;19.00;11.50
68198;PMS7003;55021;51.554;17.044;2023-05-24T19:33:06;27.25;25.00;15.00
68198;PMS7003;55021;51.554;17.044;2023-05-24T19:48:09;28.25;27.50;16.50
68198;PMS7003;55021;51.554;17.044;2023-05-24T20:03:11;22.75;21.25;12.50
68198;PMS7003;55021;51.554;17.044;2023-05-24T20:18:16;57.50;44.50;27.00
68198;PMS7003;55021;51.554;17.044;2023-05-24T20:33:18;26.75;25.00;15.00
68198;PMS7003;55021;51.554;17.044;2023-05-24T20:48:21;26.75;22.50;13.75
68198;PMS7003;55021;51.554;17.044;2023-05-24T21:03:24;23.50;21.75;12.50
68198;PMS7003;55021;51.554;17.044;2023-05-24T21:18:26;34.00;27.50;17.75
68198;PMS7003;55021;51.554;17.044;2023-05-24T21:33:29;32.50;28.00;16.00
68198;PMS7003;55021;51.554;17.044;2023-05-24T21:48:31;37.25;29.00;17.75
68198;PMS7003;55021;51.554;17.044;2023-05-24T22:03:34;40.25;30.75;18.00
68198;PMS7003;55021;51.554;17.044;2023-05-24T22:18:38;37.75;31.00;17.25
68198;PMS7003;55021;51.554;17.044;2023-05-24T22:33:40;34.25;29.00;17.50
68198;PMS7003;55021;51.554;17.044;2023-05-24T22:48:43;29.25;26.00;15.50
68198;PMS7003;55021;51.554;17.044;2023-05-24T23:03:46;32.75;27.25;14.75
68198;PMS7003;55021;51.554;17.044;2023-05-24T23:18:48;35.00;28.50;16.00
68198;PMS7003;55021;51.554;17.044;2023-05-24T23:33:51;25.75;23.00;14.50
68198;PMS7003;55021;51.554;17.044;2023-05-24T23:48:53;33.00;27.00;16.00
